Aérodrome :
LOGIN :

S'inscrire | Disclaimer

   EN    FR    IT 

 










Légende :    VFR   VFR Marginal   IFR   IFR Intensif   IFR Très Intensif
Visi : 
Plafond : 
>= 8 km
>= 3000ft
5 à 8 km
1000 à 3000 ft
1500m à 5 km
500 à 1000 ft
800 à 1500m
200 à 500 ft
< 800m
< 200 ft
Symboles :   Orages  Brouillard  Fortes neiges  Fortes précipitations  Vent > 20 kt
SIGMETs :   Divers  Orages  Givrage  Turbulence  Onde Orograph.  Cendres Volcan.







- Altitude de l'aérodrome : 202 ft
- Code IATA : LGW
- Voir les cartes d'approche


EGKK - London Gatwick

DERNIER METAR :
  • 270350Z 07005KT 9999 SCT040CB 13/11 Q1012

METARs EXPIRÉS :
  • 270320Z 08004KT 9999 FEW040CB 13/11 Q1012
  • 270250Z 08005KT CAVOK 13/11 Q1012
  • 270220Z 07004KT CAVOK 13/11 Q1012
  • 270150Z 08005KT CAVOK 13/11 Q1012
  • 270120Z 08005KT CAVOK 14/12 Q1013

TAF TAF EGKK
Valide du 27 à 00h jusqu'au 28 à 06h UTC


262256Z 2700/2806 10008KT CAVOK
PROB30 2702/2706 8000
TEMPO 2706/2709 8000 SHRA
PROB30
TEMPO 2706/2709 3000 +SHRA TSRA BKN045CB
BECMG 2708/2711 21012KT
PROB40 2722/2806 5000 BR BKN006
BECMG 2800/2803 VRB03KT
Pas de NOTAMs connus pour ce terrain.
2 SIGMETs publiés pour la FIR London (EGTT) :
 
Orages fréquents
EGTT SIGMET 05 VALID 270300/270600 EGRR
EGTT LONDON FIR FRQ TS FCST WI N5102 W00126 - N5005 W00106 - N5004 W00136 - N5047 W00207 - N5119 W00317 - N5139 W00245 - N5102 W00126 TOP FL350 MOV NNE 20KT WKN=
Orages fréquents
EGTT SIGMET 04 VALID 270200/270600 EGRR
EGTT LONDON FIR FRQ TS OBS WI N5102 W00514 - N5115 W00334 - N5058 W00324 - N5038 W00449 - N5102 W00514 TOP FL380 MOV N 30KT WKN=



MET'MAP, la Météo Aéronautique d'un coup d'oeil ! - Copyright ORBIFLY Décembre 2007 - Disclaimer

ORBIFLY MET'MAP TEAM :

Programmation & Développement : Alexandra Zaïnal
Conception & Développement : Baudouin d'Aumeries
Co-Programmation & Développement : Marc-Olivier Méhu
Soutien technique & logistique : Manuel Goepfert

Contact : metmap@orbifly.com




SOURCES & CREDITS :

   NOAA